Time;durP1;ratioP1;P1;durP2;ratioP2;P2;SDS_P1;SDS_P2;PMS_P1;PMS_P2;Temp;Humidity;BMP_temperature;BMP_pressure;BME280_temperature;BME280_humidity;BME280_pressure;Samples;Min_cycle;Max_cycle;Signal;HPM_P1;HPM_P2
2023/08/22 00:00:31;;;;;;;0.20;0.10;;;;;;;;;;4981809;28;20049;-82
2023/08/22 00:02:58;;;;;;;0.20;0.10;;;;;;;;;;4983806;28;20041;-82
2023/08/22 00:05:24;;;;;;;0.20;0.10;;;;;;;;;;4977995;28;20654;-82
2023/08/22 00:07:51;;;;;;;0.20;0.10;;;;;;;;;;4994644;28;20045;-82
2023/08/22 00:10:17;;;;;;;0.20;0.10;;;;;;;;;;4987634;28;20132;-82
2023/08/22 00:12:43;;;;;;;0.20;0.10;;;;;;;;;;4998869;28;20069;-82
2023/08/22 00:15:10;;;;;;;0.20;0.10;;;;;;;;;;4985775;28;20048;-82
2023/08/22 00:17:42;;;;;;;0.35;0.22;;;;;;;;;;4987953;28;20038;-82
2023/08/22 00:20:09;;;;;;;0.20;0.10;;;;;;;;;;4985914;28;20038;-82
2023/08/22 00:22:35;;;;;;;0.20;0.20;;;;;;;;;;4993090;28;20050;-82
2023/08/22 00:25:01;;;;;;;0.20;0.10;;;;;;;;;;4992958;28;20037;-81
2023/08/22 00:27:28;;;;;;;0.20;0.10;;;;;;;;;;4994801;28;20663;-82
2023/08/22 00:29:54;;;;;;;0.20;0.10;;;;;;;;;;4982643;28;20045;-82
2023/08/22 00:32:20;;;;;;;0.20;0.10;;;;;;;;;;4987442;28;20056;-82
2023/08/22 00:34:46;;;;;;;0.20;0.00;;;;;;;;;;4994089;28;20049;-81
2023/08/22 00:37:12;;;;;;;0.20;0.10;;;;;;;;;;5000407;28;20613;-82
2023/08/22 00:39:38;;;;;;;0.20;0.03;;;;;;;;;;4993251;28;20529;-82
2023/08/22 00:42:04;;;;;;;0.20;0.10;;;;;;;;;;4996642;28;20465;-83
2023/08/22 00:44:30;;;;;;;0.20;0.10;;;;;;;;;;4984686;28;20042;-82
2023/08/22 00:46:56;;;;;;;0.20;0.10;;;;;;;;;;4980253;28;20053;-82
2023/08/22 00:49:22;;;;;;;0.20;0.20;;;;;;;;;;4981967;28;20131;-82
2023/08/22 00:51:48;;;;;;;0.43;0.30;;;;;;;;;;4995087;28;20045;-82
2023/08/22 00:54:15;;;;;;;0.20;0.00;;;;;;;;;;4994700;28;20034;-82
2023/08/22 00:56:42;;;;;;;0.88;0.55;;;;;;;;;;4977358;28;20053;-81
2023/08/22 00:59:08;;;;;;;0.40;0.30;;;;;;;;;;4985365;28;20041;-82
2023/08/22 01:01:35;;;;;;;0.45;0.28;;;;;;;;;;4981890;28;20046;-82
2023/08/22 01:04:01;;;;;;;0.22;0.10;;;;;;;;;;4997974;28;20080;-82
2023/08/22 01:06:31;;;;;;;0.20;0.10;;;;;;;;;;4992637;28;20073;-82
2023/08/22 01:09:10;;;;;;;0.20;0.10;;;;;;;;;;4997220;28;20449;-82
2023/08/22 01:11:38;;;;;;;0.20;0.10;;;;;;;;;;4995122;28;20544;-82
2023/08/22 01:14:08;;;;;;;0.20;0.10;;;;;;;;;;4997758;28;20034;-82
2023/08/22 01:16:34;;;;;;;0.20;0.10;;;;;;;;;;4996818;28;20040;-82
2023/08/22 01:19:02;;;;;;;0.40;0.25;;;;;;;;;;4982039;28;20033;-82
2023/08/22 01:21:28;;;;;;;0.45;0.20;;;;;;;;;;4997521;28;20042;-82
2023/08/22 01:23:54;;;;;;;0.20;0.10;;;;;;;;;;4972069;28;20136;-82
2023/08/22 01:26:22;;;;;;;0.20;0.00;;;;;;;;;;4991526;28;20135;-82
2023/08/22 01:28:53;;;;;;;0.20;0.10;;;;;;;;;;4977631;28;20041;-82
2023/08/22 01:31:26;;;;;;;0.20;0.20;;;;;;;;;;4995129;28;20552;-82
2023/08/22 01:33:54;;;;;;;0.20;0.10;;;;;;;;;;4979418;28;20418;-82
2023/08/22 01:36:21;;;;;;;0.20;0.10;;;;;;;;;;4985002;28;20048;-82
2023/08/22 01:38:49;;;;;;;0.30;0.10;;;;;;;;;;4979589;28;20069;-82
2023/08/22 01:41:15;;;;;;;0.20;0.10;;;;;;;;;;4983973;28;20041;-82
2023/08/22 01:43:43;;;;;;;0.68;0.20;;;;;;;;;;4991956;28;20041;-82
2023/08/22 01:46:09;;;;;;;0.20;0.10;;;;;;;;;;4989057;28;20042;-84
2023/08/22 01:48:35;;;;;;;0.25;0.20;;;;;;;;;;4976914;28;20594;-82
2023/08/22 01:51:01;;;;;;;0.20;0.10;;;;;;;;;;4996124;28;20085;-82
2023/08/22 01:53:28;;;;;;;0.40;0.30;;;;;;;;;;4994555;28;20745;-82
2023/08/22 01:55:54;;;;;;;0.20;0.10;;;;;;;;;;4979965;28;20049;-82
2023/08/22 01:58:20;;;;;;;0.20;0.10;;;;;;;;;;4994994;28;20055;-82
2023/08/22 02:00:46;;;;;;;0.30;0.10;;;;;;;;;;4986612;28;20047;-82
2023/08/22 02:03:12;;;;;;;0.20;0.17;;;;;;;;;;4988386;28;20536;-82
2023/08/22 02:05:38;;;;;;;0.20;0.10;;;;;;;;;;4989962;28;20053;-82
2023/08/22 02:08:04;;;;;;;0.20;0.10;;;;;;;;;;4979358;28;20305;-83
2023/08/22 02:10:30;;;;;;;0.20;0.10;;;;;;;;;;5031547;23;20127;-78
2023/08/22 02:12:56;;;;;;;0.20;0.10;;;;;;;;;;5038065;28;20488;-78
2023/08/22 02:15:22;;;;;;;0.20;0.10;;;;;;;;;;5037949;28;21248;-77
2023/08/22 02:17:49;;;;;;;0.47;0.13;;;;;;;;;;5034268;28;20044;-77
2023/08/22 02:20:15;;;;;;;0.20;0.10;;;;;;;;;;5018726;28;20085;-77
2023/08/22 02:22:41;;;;;;;0.20;0.00;;;;;;;;;;5009274;28;20030;-77
2023/08/22 02:25:11;;;;;;;0.40;0.20;;;;;;;;;;5006753;28;20042;-77
2023/08/22 02:27:37;;;;;;;0.20;0.10;;;;;;;;;;4992801;28;20092;-76
2023/08/22 02:30:12;;;;;;;0.20;0.10;;;;;;;;;;4996663;28;20053;-77
2023/08/22 02:32:39;;;;;;;0.20;0.10;;;;;;;;;;5006543;28;20556;-78
2023/08/22 02:35:06;;;;;;;0.20;0.10;;;;;;;;;;4991356;28;20450;-77
2023/08/22 02:37:32;;;;;;;0.30;0.20;;;;;;;;;;5015914;28;20363;-78
2023/08/22 02:39:58;;;;;;;0.20;0.10;;;;;;;;;;5005088;28;20052;-78
2023/08/22 02:42:24;;;;;;;0.20;0.08;;;;;;;;;;5006117;28;20059;-78
2023/08/22 02:44:50;;;;;;;0.20;0.10;;;;;;;;;;5003863;28;20045;-78
2023/08/22 02:47:16;;;;;;;1.13;0.40;;;;;;;;;;5007399;28;20044;-78
2023/08/22 02:49:42;;;;;;;0.30;0.10;;;;;;;;;;5006504;28;20510;-78
2023/08/22 02:52:08;;;;;;;0.20;0.20;;;;;;;;;;5011323;28;20374;-78
2023/08/22 02:54:34;;;;;;;0.20;0.00;;;;;;;;;;5015404;28;20517;-78
2023/08/22 02:57:00;;;;;;;0.20;0.10;;;;;;;;;;5014210;28;20034;-78
2023/08/22 02:59:26;;;;;;;0.20;0.17;;;;;;;;;;5001704;28;20057;-78
2023/08/22 03:01:52;;;;;;;0.20;0.00;;;;;;;;;;5007619;28;20072;-78
2023/08/22 03:04:18;;;;;;;0.20;0.10;;;;;;;;;;4997070;28;20075;-78
2023/08/22 03:06:44;;;;;;;0.20;0.10;;;;;;;;;;5011063;28;20065;-77
2023/08/22 03:09:10;;;;;;;0.20;0.10;;;;;;;;;;4994818;28;20503;-78
2023/08/22 03:11:37;;;;;;;0.20;0.10;;;;;;;;;;5015440;28;20041;-78
2023/08/22 03:14:03;;;;;;;0.20;0.10;;;;;;;;;;4989881;28;20041;-78
2023/08/22 03:16:29;;;;;;;0.20;0.15;;;;;;;;;;4992875;28;20045;-77
2023/08/22 03:18:57;;;;;;;0.20;0.00;;;;;;;;;;5010045;28;20041;-77
2023/08/22 03:21:23;;;;;;;0.30;0.20;;;;;;;;;;5010696;28;20045;-77
2023/08/22 03:23:49;;;;;;;0.20;0.15;;;;;;;;;;5008899;28;20080;-77
2023/08/22 03:26:15;;;;;;;0.20;0.17;;;;;;;;;;5008887;28;21891;-78
2023/08/22 03:28:41;;;;;;;0.30;0.20;;;;;;;;;;5000324;28;20148;-78
2023/08/22 03:31:07;;;;;;;0.20;0.08;;;;;;;;;;5012099;28;20438;-77
2023/08/22 03:33:34;;;;;;;0.20;0.10;;;;;;;;;;5000031;28;20450;-78
2023/08/22 03:36:00;;;;;;;0.20;0.10;;;;;;;;;;5017488;28;20887;-78
2023/08/22 03:38:26;;;;;;;0.20;0.20;;;;;;;;;;5009621;28;20053;-77
2023/08/22 03:40:53;;;;;;;0.20;0.00;;;;;;;;;;5010276;28;20060;-78
2023/08/22 03:43:19;;;;;;;0.20;0.15;;;;;;;;;;4997503;28;20044;-78
2023/08/22 03:45:45;;;;;;;0.57;0.20;;;;;;;;;;5000886;28;20117;-78
2023/08/22 03:48:12;;;;;;;0.20;0.10;;;;;;;;;;5001609;28;20045;-77
2023/08/22 03:50:41;;;;;;;0.20;0.00;;;;;;;;;;5010668;28;20076;-78
2023/08/22 03:53:08;;;;;;;0.20;0.10;;;;;;;;;;5001293;28;20038;-78
2023/08/22 03:55:34;;;;;;;0.20;0.00;;;;;;;;;;5008449;28;20045;-78
2023/08/22 03:58:00;;;;;;;0.20;0.10;;;;;;;;;;4988831;28;20069;-78
2023/08/22 04:00:26;;;;;;;0.20;0.10;;;;;;;;;;5018598;28;20045;-78
2023/08/22 04:02:56;;;;;;;0.20;0.10;;;;;;;;;;5009167;28;20050;-78
2023/08/22 04:05:22;;;;;;;0.20;0.00;;;;;;;;;;5019041;28;20421;-78
2023/08/22 04:07:48;;;;;;;0.50;0.28;;;;;;;;;;5009718;28;20033;-78
2023/08/22 04:10:14;;;;;;;0.50;0.20;;;;;;;;;;5021407;28;21140;-78
2023/08/22 04:12:40;;;;;;;0.20;0.17;;;;;;;;;;5006484;28;20049;-78
2023/08/22 04:15:07;;;;;;;0.20;0.03;;;;;;;;;;5005677;28;20048;-78
2023/08/22 04:17:33;;;;;;;0.20;0.10;;;;;;;;;;5022113;28;20057;-78
2023/08/22 04:19:59;;;;;;;0.20;0.15;;;;;;;;;;5017455;28;20687;-78
2023/08/22 04:22:25;;;;;;;0.20;0.10;;;;;;;;;;5004511;28;20041;-77
2023/08/22 04:24:51;;;;;;;0.22;0.20;;;;;;;;;;5019978;28;20041;-77
2023/08/22 04:27:17;;;;;;;0.20;0.10;;;;;;;;;;5011551;28;20046;-78
2023/08/22 04:29:43;;;;;;;0.20;0.10;;;;;;;;;;4986808;28;20540;-77
2023/08/22 04:32:09;;;;;;;0.25;0.15;;;;;;;;;;4997555;28;20683;-77
2023/08/22 04:34:35;;;;;;;0.35;0.20;;;;;;;;;;4999844;28;20129;-77
2023/08/22 04:37:01;;;;;;;0.20;0.00;;;;;;;;;;5014083;28;20046;-77
2023/08/22 04:39:27;;;;;;;0.35;0.25;;;;;;;;;;4996372;28;20403;-77
2023/08/22 04:41:53;;;;;;;0.20;0.00;;;;;;;;;;5013366;28;20175;-78
2023/08/22 04:44:19;;;;;;;0.20;0.00;;;;;;;;;;5010467;28;20091;-77
2023/08/22 04:46:45;;;;;;;0.30;0.22;;;;;;;;;;5006551;28;20486;-77
2023/08/22 04:49:11;;;;;;;0.22;0.13;;;;;;;;;;4990964;28;20042;-77
2023/08/22 04:51:37;;;;;;;0.20;0.00;;;;;;;;;;5004791;28;20038;-78
2023/08/22 04:54:03;;;;;;;0.20;0.10;;;;;;;;;;4994640;28;20901;-78
2023/08/22 04:56:30;;;;;;;0.20;0.10;;;;;;;;;;5006933;28;20034;-78
2023/08/22 04:58:55;;;;;;;0.20;0.10;;;;;;;;;;4993478;28;20522;-77
2023/08/22 05:01:22;;;;;;;0.30;0.10;;;;;;;;;;5001767;28;20140;-77
2023/08/22 05:03:48;;;;;;;0.20;0.10;;;;;;;;;;5012853;28;20232;-78
2023/08/22 05:06:14;;;;;;;0.20;0.17;;;;;;;;;;5010262;28;20095;-77
2023/08/22 05:08:40;;;;;;;0.20;0.05;;;;;;;;;;5000401;28;20561;-77
2023/08/22 05:11:06;;;;;;;0.20;0.00;;;;;;;;;;4996580;28;20477;-77
2023/08/22 05:13:32;;;;;;;0.20;0.10;;;;;;;;;;5008283;28;20247;-78
2023/08/22 05:15:58;;;;;;;1.15;1.05;;;;;;;;;;5017075;28;20101;-78
2023/08/22 05:18:24;;;;;;;0.20;0.10;;;;;;;;;;5019628;28;20107;-77
2023/08/22 05:20:51;;;;;;;0.20;0.10;;;;;;;;;;5022722;28;20072;-78
2023/08/22 05:23:18;;;;;;;0.20;0.10;;;;;;;;;;5022582;28;20043;-78
2023/08/22 05:25:44;;;;;;;0.20;0.10;;;;;;;;;;5010418;28;20477;-78
2023/08/22 05:28:10;;;;;;;0.20;0.13;;;;;;;;;;5025873;28;20041;-78
2023/08/22 05:30:39;;;;;;;0.35;0.20;;;;;;;;;;5010300;28;20128;-78
2023/08/22 05:33:06;;;;;;;0.20;0.10;;;;;;;;;;5025719;28;20593;-77
2023/08/22 05:35:32;;;;;;;0.20;0.10;;;;;;;;;;5023861;28;20293;-78
2023/08/22 05:38:00;;;;;;;0.20;0.10;;;;;;;;;;5027132;28;20045;-78
2023/08/22 05:40:26;;;;;;;0.20;0.13;;;;;;;;;;5018629;28;20080;-77
2023/08/22 05:42:53;;;;;;;0.30;0.28;;;;;;;;;;5004355;28;20042;-78
2023/08/22 05:45:19;;;;;;;0.30;0.20;;;;;;;;;;5019964;28;20141;-77
2023/08/22 05:47:45;;;;;;;0.20;0.10;;;;;;;;;;5003006;28;20033;-77
2023/08/22 05:50:11;;;;;;;0.60;0.32;;;;;;;;;;5004011;28;20050;-78
2023/08/22 05:52:38;;;;;;;0.35;0.20;;;;;;;;;;5019323;28;20402;-78
2023/08/22 05:55:04;;;;;;;0.28;0.17;;;;;;;;;;5013519;28;20550;-78
2023/08/22 05:57:30;;;;;;;0.20;0.10;;;;;;;;;;5004877;28;20107;-78
2023/08/22 05:59:56;;;;;;;0.20;0.10;;;;;;;;;;5002282;28;20341;-78
2023/08/22 06:02:22;;;;;;;0.20;0.10;;;;;;;;;;5015621;28;20046;-78
2023/08/22 06:04:48;;;;;;;0.20;0.10;;;;;;;;;;5013556;28;20034;-78
2023/08/22 06:07:14;;;;;;;0.20;0.20;;;;;;;;;;5018993;28;20045;-77
2023/08/22 06:09:40;;;;;;;0.73;0.32;;;;;;;;;;4996938;28;20060;-77
2023/08/22 06:12:07;;;;;;;0.20;0.10;;;;;;;;;;5018551;28;20506;-78
2023/08/22 06:14:33;;;;;;;0.20;0.13;;;;;;;;;;5006078;28;20097;-78
2023/08/22 06:16:59;;;;;;;0.20;0.00;;;;;;;;;;5009835;28;20076;-78
2023/08/22 06:19:25;;;;;;;0.20;0.10;;;;;;;;;;5019562;28;20041;-77
2023/08/22 06:21:51;;;;;;;0.20;0.00;;;;;;;;;;5015675;28;20121;-78
2023/08/22 06:24:17;;;;;;;0.22;0.22;;;;;;;;;;4995391;28;20092;-78
2023/08/22 06:26:43;;;;;;;0.95;0.20;;;;;;;;;;5004895;28;20090;-77
2023/08/22 06:29:09;;;;;;;0.20;0.20;;;;;;;;;;5008457;28;20120;-78
2023/08/22 06:31:36;;;;;;;0.43;0.30;;;;;;;;;;5013525;28;20037;-78
2023/08/22 06:34:02;;;;;;;0.20;0.20;;;;;;;;;;5013071;28;20501;-77
2023/08/22 06:36:28;;;;;;;0.20;0.10;;;;;;;;;;5020735;28;20630;-78
2023/08/22 06:38:54;;;;;;;0.40;0.20;;;;;;;;;;5015030;28;20045;-78
2023/08/22 06:41:20;;;;;;;0.35;0.28;;;;;;;;;;5014938;28;20597;-78
2023/08/22 06:43:47;;;;;;;0.30;0.20;;;;;;;;;;4990489;28;20041;-78
2023/08/22 06:46:15;;;;;;;0.20;0.08;;;;;;;;;;4993365;28;20083;-78
2023/08/22 06:48:41;;;;;;;0.20;0.10;;;;;;;;;;5012841;28;20628;-78
2023/08/22 06:51:07;;;;;;;0.20;0.20;;;;;;;;;;5001053;28;20678;-78
2023/08/22 06:53:33;;;;;;;0.20;0.20;;;;;;;;;;5011052;28;20034;-79
2023/08/22 06:56:00;;;;;;;0.32;0.30;;;;;;;;;;5017485;28;20041;-78
2023/08/22 06:58:26;;;;;;;0.30;0.13;;;;;;;;;;5010375;28;20636;-79
2023/08/22 07:00:52;;;;;;;0.20;0.10;;;;;;;;;;5009967;28;20038;-78
2023/08/22 07:03:18;;;;;;;0.25;0.20;;;;;;;;;;5004455;28;20037;-78
2023/08/22 07:05:44;;;;;;;0.20;0.17;;;;;;;;;;5004276;28;20041;-79
2023/08/22 07:08:10;;;;;;;0.30;0.30;;;;;;;;;;5004456;28;20052;-78
2023/08/22 07:10:36;;;;;;;0.20;0.20;;;;;;;;;;5007544;28;20077;-78
2023/08/22 07:13:02;;;;;;;0.20;0.10;;;;;;;;;;5007204;28;20040;-79
2023/08/22 07:15:29;;;;;;;0.95;0.45;;;;;;;;;;5015083;28;20029;-79
2023/08/22 07:17:55;;;;;;;0.20;0.10;;;;;;;;;;5002681;28;20044;-79
2023/08/22 07:20:21;;;;;;;0.20;0.15;;;;;;;;;;4997606;28;20129;-80
2023/08/22 07:22:47;;;;;;;0.28;0.10;;;;;;;;;;5014570;28;20029;-79
2023/08/22 07:25:13;;;;;;;0.40;0.40;;;;;;;;;;5018961;28;20038;-80
2023/08/22 07:27:39;;;;;;;0.40;0.20;;;;;;;;;;5018594;28;20128;-80
2023/08/22 07:30:06;;;;;;;0.20;0.10;;;;;;;;;;5011887;28;20725;-81
2023/08/22 07:32:32;;;;;;;0.50;0.15;;;;;;;;;;4999611;28;20049;-80
2023/08/22 07:34:58;;;;;;;0.20;0.10;;;;;;;;;;5004306;28;20124;-81
2023/08/22 07:37:24;;;;;;;0.73;0.35;;;;;;;;;;5020756;28;20038;-80
2023/08/22 07:39:50;;;;;;;0.20;0.08;;;;;;;;;;5004622;28;20409;-81
2023/08/22 07:42:16;;;;;;;0.40;0.30;;;;;;;;;;5013359;28;20671;-81
2023/08/22 07:44:43;;;;;;;0.20;0.03;;;;;;;;;;5015125;28;20041;-81
2023/08/22 07:47:09;;;;;;;0.55;0.22;;;;;;;;;;4996100;28;20101;-79
2023/08/22 07:49:35;;;;;;;0.20;0.10;;;;;;;;;;4999171;28;20046;-83
2023/08/22 07:52:02;;;;;;;0.28;0.20;;;;;;;;;;4996564;28;20101;-81
2023/08/22 07:54:29;;;;;;;0.20;0.10;;;;;;;;;;5015278;28;20084;-82
2023/08/22 07:56:55;;;;;;;0.35;0.20;;;;;;;;;;5000860;28;20328;-83
2023/08/22 07:59:21;;;;;;;0.40;0.20;;;;;;;;;;4997961;28;20045;-82
2023/08/22 08:01:47;;;;;;;0.20;0.10;;;;;;;;;;5004943;28;20033;-81
2023/08/22 08:04:13;;;;;;;0.40;0.10;;;;;;;;;;5005524;28;20438;-82
2023/08/22 08:06:39;;;;;;;0.20;0.10;;;;;;;;;;5009787;28;20517;-82
2023/08/22 08:09:05;;;;;;;0.30;0.10;;;;;;;;;;5012568;28;20033;-83
2023/08/22 08:11:37;;;;;;;0.20;0.10;;;;;;;;;;5022574;23;20070;-83
2023/08/22 08:14:07;;;;;;;0.20;0.10;;;;;;;;;;5012440;28;20061;-84
2023/08/22 08:16:33;;;;;;;0.25;0.25;;;;;;;;;;5030404;28;20049;-83
2023/08/22 08:18:59;;;;;;;0.20;0.10;;;;;;;;;;5003636;28;20254;-83
2023/08/22 08:21:25;;;;;;;0.32;0.30;;;;;;;;;;5012774;28;20033;-83
2023/08/22 08:23:51;;;;;;;0.20;0.00;;;;;;;;;;5015848;28;20580;-84
2023/08/22 08:26:17;;;;;;;0.20;0.10;;;;;;;;;;4999346;28;20045;-83
2023/08/22 08:28:43;;;;;;;0.20;0.17;;;;;;;;;;5019261;28;20050;-84
2023/08/22 08:31:09;;;;;;;0.20;0.10;;;;;;;;;;5014320;28;20057;-84
2023/08/22 08:33:36;;;;;;;0.20;0.15;;;;;;;;;;5017879;28;20474;-82
2023/08/22 08:36:03;;;;;;;0.30;0.30;;;;;;;;;;5021776;28;20652;-84
2023/08/22 08:38:30;;;;;;;0.20;0.10;;;;;;;;;;5004503;28;20034;-84
2023/08/22 08:41:00;;;;;;;0.38;0.30;;;;;;;;;;5006031;28;20498;-83
2023/08/22 08:43:26;;;;;;;0.30;0.20;;;;;;;;;;5011767;28;20052;-84
2023/08/22 08:45:56;;;;;;;0.20;0.20;;;;;;;;;;5007942;28;20340;-84
2023/08/22 08:48:23;;;;;;;0.20;0.10;;;;;;;;;;4990957;28;20068;-85
2023/08/22 08:50:52;;;;;;;0.20;0.10;;;;;;;;;;5017246;28;20037;-85
2023/08/22 08:53:19;;;;;;;0.20;0.10;;;;;;;;;;5019543;28;20048;-81
2023/08/22 08:55:45;;;;;;;0.20;0.10;;;;;;;;;;5015901;28;20045;-82
2023/08/22 08:58:11;;;;;;;0.38;0.32;;;;;;;;;;5014505;28;20402;-82
2023/08/22 09:00:37;;;;;;;0.22;0.13;;;;;;;;;;5013966;28;20205;-83
2023/08/22 09:03:04;;;;;;;0.20;0.10;;;;;;;;;;5005233;28;20080;-83
2023/08/22 09:05:30;;;;;;;0.20;0.10;;;;;;;;;;5014204;28;20133;-84
2023/08/22 09:07:57;;;;;;;0.20;0.10;;;;;;;;;;5015477;28;20045;-85
2023/08/22 09:10:35;;;;;;;0.20;0.00;;;;;;;;;;5016686;28;20049;-85
2023/08/22 09:13:05;;;;;;;0.20;0.10;;;;;;;;;;5017649;28;20095;-84
2023/08/22 09:15:31;;;;;;;0.20;0.10;;;;;;;;;;5030011;28;20049;-83
2023/08/22 09:17:57;;;;;;;0.20;0.20;;;;;;;;;;5028295;28;20065;-83
2023/08/22 09:20:24;;;;;;;0.20;0.10;;;;;;;;;;5020055;28;20253;-83
2023/08/22 09:22:50;;;;;;;0.20;0.10;;;;;;;;;;5009284;28;20626;-83
2023/08/22 09:25:17;;;;;;;0.20;0.10;;;;;;;;;;5024218;28;20473;-83
2023/08/22 09:27:43;;;;;;;0.20;0.10;;;;;;;;;;5010835;28;20454;-83
2023/08/22 09:30:12;;;;;;;0.45;0.20;;;;;;;;;;5010687;28;20037;-84
2023/08/22 09:32:38;;;;;;;0.20;0.10;;;;;;;;;;5000666;28;20049;-84
2023/08/22 09:35:04;;;;;;;0.20;0.10;;;;;;;;;;5011009;28;20098;-83
2023/08/22 09:37:37;;;;;;;0.20;0.20;;;;;;;;;;5002709;28;20037;-84
2023/08/22 09:40:08;;;;;;;0.25;0.20;;;;;;;;;;5009764;28;20114;-81
2023/08/22 09:42:37;;;;;;;0.20;0.10;;;;;;;;;;5015688;28;20060;-82
2023/08/22 09:45:04;;;;;;;0.20;0.10;;;;;;;;;;5010442;28;20140;-82
2023/08/22 09:47:31;;;;;;;0.20;0.00;;;;;;;;;;5002867;28;20518;-85
2023/08/22 09:49:59;;;;;;;0.60;0.55;;;;;;;;;;5011492;28;20041;-86
2023/08/22 09:52:26;;;;;;;0.30;0.20;;;;;;;;;;5014477;28;20038;-82
2023/08/22 09:54:52;;;;;;;0.50;0.38;;;;;;;;;;5012546;28;20046;-82
2023/08/22 09:57:19;;;;;;;0.20;0.00;;;;;;;;;;5010431;28;20049;-84
2023/08/22 09:59:46;;;;;;;0.20;0.05;;;;;;;;;;5011704;28;20067;-85
2023/08/22 10:02:12;;;;;;;0.20;0.10;;;;;;;;;;5014721;28;20129;-82
2023/08/22 10:04:38;;;;;;;0.20;0.00;;;;;;;;;;5011849;28;20049;-82
2023/08/22 10:07:04;;;;;;;0.20;0.10;;;;;;;;;;5015746;28;20040;-83
2023/08/22 10:09:33;;;;;;;0.20;0.10;;;;;;;;;;5010284;28;20045;-85
2023/08/22 10:12:02;;;;;;;0.20;0.10;;;;;;;;;;4998833;28;20033;-82
2023/08/22 10:14:49;;;;;;;0.20;0.10;;;;;;;;;;4996290;28;20077;-83
2023/08/22 10:17:15;;;;;;;0.60;0.40;;;;;;;;;;4999810;28;20064;-82
2023/08/22 10:19:41;;;;;;;0.20;0.10;;;;;;;;;;5011903;28;20096;-81
2023/08/22 10:22:08;;;;;;;0.20;0.00;;;;;;;;;;5006822;28;20065;-83
2023/08/22 10:24:35;;;;;;;0.20;0.10;;;;;;;;;;5012949;28;20662;-81
2023/08/22 10:27:05;;;;;;;1.38;0.35;;;;;;;;;;5004272;28;20051;-86
2023/08/22 10:29:40;;;;;;;0.20;0.10;;;;;;;;;;5007204;28;20097;-82
2023/08/22 10:32:06;;;;;;;0.20;0.10;;;;;;;;;;5013476;28;20092;-82
2023/08/22 10:34:35;;;;;;;0.20;0.10;;;;;;;;;;5018390;28;20037;-83
2023/08/22 10:37:04;;;;;;;0.20;0.10;;;;;;;;;;4996692;28;20042;-82
2023/08/22 10:39:44;;;;;;;0.20;0.05;;;;;;;;;;5006352;28;20049;-81
2023/08/22 10:42:16;;;;;;;0.20;0.10;;;;;;;;;;4994886;28;20157;-84
2023/08/22 10:44:42;;;;;;;0.20;0.10;;;;;;;;;;4990499;28;20049;-83
2023/08/22 10:47:15;;;;;;;0.20;0.00;;;;;;;;;;5008399;28;20044;-83
2023/08/22 10:49:42;;;;;;;0.20;0.10;;;;;;;;;;5007101;28;20124;-83
2023/08/22 10:52:09;;;;;;;0.20;0.10;;;;;;;;;;4996115;28;20103;-82
2023/08/22 10:54:54;;;;;;;0.22;0.10;;;;;;;;;;5012661;28;20048;-84
2023/08/22 10:57:20;;;;;;;0.20;0.20;;;;;;;;;;4994303;28;20128;-85
2023/08/22 11:00:13;;;;;;;0.20;0.10;;;;;;;;;;5010761;28;20510;-82
2023/08/22 11:02:40;;;;;;;0.20;0.10;;;;;;;;;;5014580;28;20514;-83
2023/08/22 11:05:11;;;;;;;0.20;0.10;;;;;;;;;;5011815;28;20033;-83
2023/08/22 11:07:37;;;;;;;0.30;0.10;;;;;;;;;;5001605;28;20067;-81
2023/08/22 11:10:04;;;;;;;0.20;0.10;;;;;;;;;;5013859;28;20045;-83
2023/08/22 11:12:30;;;;;;;0.20;0.10;;;;;;;;;;4993290;28;20077;-84
2023/08/22 11:14:57;;;;;;;0.20;0.10;;;;;;;;;;5014971;28;20045;-83
2023/08/22 11:17:41;;;;;;;0.20;0.20;;;;;;;;;;5022016;28;20060;-85
2023/08/22 11:20:11;;;;;;;2.38;0.55;;;;;;;;;;5009386;28;20046;-83
2023/08/22 11:22:40;;;;;;;0.20;0.20;;;;;;;;;;5015484;28;20509;-84
2023/08/22 11:25:07;;;;;;;2.13;0.70;;;;;;;;;;5012731;28;20374;-84
2023/08/22 11:27:55;;;;;;;0.20;0.10;;;;;;;;;;5015198;28;20033;-86
2023/08/22 11:30:21;;;;;;;0.20;0.10;;;;;;;;;;4994176;28;20153;-83
2023/08/22 11:32:50;;;;;;;0.20;0.00;;;;;;;;;;5009938;28;20369;-82
2023/08/22 11:35:16;;;;;;;0.20;0.10;;;;;;;;;;5010960;28;20068;-82
2023/08/22 11:37:42;;;;;;;0.38;0.10;;;;;;;;;;5013867;28;20132;-82
2023/08/22 11:40:09;;;;;;;0.20;0.10;;;;;;;;;;5003173;28;20037;-83
2023/08/22 11:42:42;;;;;;;0.20;0.20;;;;;;;;;;5010049;28;20042;-81
2023/08/22 11:45:17;;;;;;;0.20;0.10;;;;;;;;;;5015244;28;20342;-85
2023/08/22 11:47:43;;;;;;;0.20;0.10;;;;;;;;;;5012870;28;20049;-87
2023/08/22 11:50:19;;;;;;;0.20;0.10;;;;;;;;;;5009429;28;20545;-84
2023/08/22 11:52:46;;;;;;;0.20;0.10;;;;;;;;;;5020026;28;20041;-86
2023/08/22 11:55:16;;;;;;;0.20;0.10;;;;;;;;;;5015223;28;20099;-84
2023/08/22 11:57:46;;;;;;;0.20;0.08;;;;;;;;;;5011851;28;20049;-85
2023/08/22 12:00:15;;;;;;;0.30;0.20;;;;;;;;;;4997788;28;20056;-80
2023/08/22 12:02:56;;;;;;;0.20;0.10;;;;;;;;;;5014400;28;20537;-83
2023/08/22 12:05:34;;;;;;;0.20;0.00;;;;;;;;;;5018660;28;20117;-84
2023/08/22 12:08:01;;;;;;;0.30;0.22;;;;;;;;;;5022520;28;20037;-84
2023/08/22 12:10:38;;;;;;;0.20;0.10;;;;;;;;;;5017725;28;20474;-83
2023/08/22 12:13:04;;;;;;;0.20;0.08;;;;;;;;;;5011462;28;20053;-83
2023/08/22 12:15:31;;;;;;;0.20;0.10;;;;;;;;;;5016125;28;20125;-83
2023/08/22 12:18:01;;;;;;;0.20;0.10;;;;;;;;;;5017958;28;20042;-84
2023/08/22 12:20:27;;;;;;;0.52;0.30;;;;;;;;;;4997710;28;20095;-82
2023/08/22 12:22:53;;;;;;;0.20;0.10;;;;;;;;;;5015349;28;20038;-82
2023/08/22 12:25:20;;;;;;;0.20;0.03;;;;;;;;;;5014326;28;20030;-82
2023/08/22 12:27:46;;;;;;;0.20;0.00;;;;;;;;;;5019301;28;20042;-80
2023/08/22 12:30:12;;;;;;;0.20;0.00;;;;;;;;;;5012080;28;20115;-82
2023/08/22 12:32:38;;;;;;;0.30;0.17;;;;;;;;;;5000833;28;20048;-81
2023/08/22 12:35:04;;;;;;;0.20;0.10;;;;;;;;;;5015998;28;20037;-80
2023/08/22 12:37:30;;;;;;;0.30;0.20;;;;;;;;;;5018081;28;20052;-80
2023/08/22 12:39:56;;;;;;;0.20;0.10;;;;;;;;;;5017457;28;20049;-80
2023/08/22 12:42:22;;;;;;;0.20;0.00;;;;;;;;;;5016974;28;20045;-81
2023/08/22 12:44:48;;;;;;;0.20;0.10;;;;;;;;;;5010831;28;20034;-82
2023/08/22 12:47:14;;;;;;;0.20;0.10;;;;;;;;;;5013898;28;20087;-83
2023/08/22 12:49:40;;;;;;;0.20;0.10;;;;;;;;;;4999948;28;20401;-83
2023/08/22 12:52:06;;;;;;;0.20;0.13;;;;;;;;;;4999131;28;20034;-85
2023/08/22 12:54:32;;;;;;;0.20;0.00;;;;;;;;;;5021272;28;20045;-82
2023/08/22 12:57:05;;;;;;;0.20;0.10;;;;;;;;;;5005626;28;20068;-84
2023/08/22 12:59:32;;;;;;;0.20;0.05;;;;;;;;;;4990059;28;20064;-84
2023/08/22 13:02:00;;;;;;;0.43;0.40;;;;;;;;;;5003331;28;20095;-84
2023/08/22 13:04:38;;;;;;;0.20;0.10;;;;;;;;;;5002810;28;20042;-83
2023/08/22 13:07:09;;;;;;;0.20;0.00;;;;;;;;;;5013682;28;20049;-81
2023/08/22 13:09:35;;;;;;;0.20;0.10;;;;;;;;;;5018462;28;20076;-83
2023/08/22 13:12:01;;;;;;;0.20;0.10;;;;;;;;;;5004413;28;20037;-83
2023/08/22 13:14:27;;;;;;;0.90;0.40;;;;;;;;;;5020026;28;20041;-82
2023/08/22 13:16:54;;;;;;;0.20;0.10;;;;;;;;;;5015755;28;20046;-83
2023/08/22 13:19:23;;;;;;;0.40;0.30;;;;;;;;;;5017274;28;20057;-83
2023/08/22 13:21:52;;;;;;;0.20;0.10;;;;;;;;;;5038150;28;20042;-86
2023/08/22 13:24:21;;;;;;;0.25;0.15;;;;;;;;;;5029384;28;20041;-82
2023/08/22 13:26:47;;;;;;;0.20;0.10;;;;;;;;;;5009877;28;20818;-83
2023/08/22 13:29:15;;;;;;;0.20;0.10;;;;;;;;;;5013559;28;20498;-84
2023/08/22 13:31:49;;;;;;;0.20;0.10;;;;;;;;;;5025447;28;20544;-84
2023/08/22 13:34:15;;;;;;;0.20;0.00;;;;;;;;;;5028176;28;20045;-83
2023/08/22 13:36:41;;;;;;;0.20;0.05;;;;;;;;;;5033247;28;20054;-83
2023/08/22 13:39:10;;;;;;;0.20;0.10;;;;;;;;;;5033874;28;20198;-83
2023/08/22 13:41:49;;;;;;;0.20;0.10;;;;;;;;;;5024428;28;20417;-84
2023/08/22 13:44:18;;;;;;;0.20;0.10;;;;;;;;;;4995955;28;20072;-84
2023/08/22 13:46:44;;;;;;;0.20;0.10;;;;;;;;;;5018540;28;20122;-83
2023/08/22 13:49:10;;;;;;;0.20;0.20;;;;;;;;;;5021058;28;20038;-82
2023/08/22 13:51:36;;;;;;;0.30;0.10;;;;;;;;;;5022003;28;20037;-83
2023/08/22 13:54:03;;;;;;;0.20;0.10;;;;;;;;;;5018268;28;20034;-83
2023/08/22 13:56:29;;;;;;;0.20;0.10;;;;;;;;;;5020220;28;20049;-84
2023/08/22 13:58:55;;;;;;;0.20;0.10;;;;;;;;;;5010055;28;20096;-83
2023/08/22 14:01:21;;;;;;;0.20;0.10;;;;;;;;;;5018189;28;20831;-82
2023/08/22 14:03:47;;;;;;;0.20;0.10;;;;;;;;;;5021122;28;20041;-84
2023/08/22 14:06:13;;;;;;;0.20;0.10;;;;;;;;;;5022789;28;20041;-85
2023/08/22 14:08:39;;;;;;;0.25;0.20;;;;;;;;;;5013453;28;20034;-84
2023/08/22 14:11:06;;;;;;;0.20;0.10;;;;;;;;;;5067527;22;20050;-86
2023/08/22 14:13:34;;;;;;;0.20;0.10;;;;;;;;;;5012027;28;20250;-82
2023/08/22 14:16:00;;;;;;;0.20;0.10;;;;;;;;;;5028902;28;20037;-86
2023/08/22 14:18:27;;;;;;;0.20;0.10;;;;;;;;;;5021032;28;20448;-83
2023/08/22 14:20:53;;;;;;;0.20;0.10;;;;;;;;;;5010082;28;20128;-82
2023/08/22 14:23:19;;;;;;;0.20;0.10;;;;;;;;;;4997996;28;21395;-82
2023/08/22 14:25:45;;;;;;;0.20;0.00;;;;;;;;;;5013270;28;20048;-83
2023/08/22 14:28:11;;;;;;;0.20;0.05;;;;;;;;;;5002961;28;20092;-86
2023/08/22 14:30:37;;;;;;;0.20;0.10;;;;;;;;;;5005000;28;20041;-78
2023/08/22 14:33:03;;;;;;;0.20;0.10;;;;;;;;;;5011916;28;20052;-82
2023/08/22 14:35:29;;;;;;;0.20;0.10;;;;;;;;;;5037072;28;20069;-83
2023/08/22 14:37:55;;;;;;;0.20;0.10;;;;;;;;;;5023838;28;20063;-77
2023/08/22 14:40:21;;;;;;;0.20;0.10;;;;;;;;;;5018192;28;20505;-80
2023/08/22 14:42:47;;;;;;;0.20;0.10;;;;;;;;;;5021065;28;20097;-78